Time;durP1;ratioP1;P1;durP2;ratioP2;P2;SDS_P1;SDS_P2;PMS_P1;PMS_P2;Temp;Humidity;BMP_temperature;BMP_pressure;BME280_temperature;BME280_humidity;BME280_pressure;Samples;Min_cycle;Max_cycle;Signal;HPM_P1;HPM_P2
2022/09/03 00:00:48;;;;;;;7.78;4.30;;;;;;;15.63;70.65;101513.28;1786070;80;25825;-63
2022/09/03 00:03:38;;;;;;;7.80;4.80;;;;;;;15.58;70.88;101510.16;1779517;80;27540;-63
2022/09/03 00:06:14;;;;;;;9.98;5.03;;;;;;;15.45;71.11;101504.24;1771344;80;25883;-63
2022/09/03 00:08:49;;;;;;;11.05;4.35;;;;;;;15.38;71.58;101505.83;1767514;80;25719;-63
2022/09/03 00:11:34;;;;;;;9.50;4.55;;;;;;;15.42;71.70;101511.31;1766216;81;25934;-63
2022/09/03 00:14:08;;;;;;;8.78;5.20;;;;;;;15.48;71.83;101512.05;1766150;80;26147;-63
2022/09/03 00:17:06;;;;;;;11.08;4.60;;;;;;;15.53;71.89;101508.41;1766078;80;27457;-63
2022/09/03 00:19:38;;;;;;;11.50;4.90;;;;;;;15.59;71.96;101506.95;1765959;81;25723;-62
2022/09/03 00:22:13;;;;;;;8.28;4.72;;;;;;;15.61;72.09;101509.86;1766095;81;25821;-63
2022/09/03 00:24:43;;;;;;;6.72;4.58;;;;;;;15.53;72.36;101508.41;1765468;80;26646;-63
2022/09/03 00:27:18;;;;;;;7.53;4.58;;;;;;;15.48;72.25;101509.34;1766562;81;25938;-63
2022/09/03 00:30:05;;;;;;;6.80;4.35;;;;;;;15.41;72.36;101510.95;1734983;81;27994;-63
2022/09/03 00:33:00;;;;;;;8.58;4.97;;;;;;;15.41;72.78;101507.77;1724022;83;25876;-62
2022/09/03 00:35:51;;;;;;;7.85;4.55;;;;;;;15.31;72.60;101508.30;1724118;83;25814;-62
2022/09/03 00:38:18;;;;;;;13.48;5.17;;;;;;;15.21;72.88;101511.03;1724403;83;25904;-63
2022/09/03 00:41:20;;;;;;;11.85;4.62;;;;;;;15.19;73.54;101504.94;1724177;82;25775;-63
2022/09/03 00:44:16;;;;;;;10.55;5.10;;;;;;;15.15;73.11;101499.44;1724105;83;27637;-64
2022/09/03 00:47:03;;;;;;;7.42;4.40;;;;;;;15.22;73.42;101497.84;1722686;80;25921;-64
2022/09/03 00:49:56;;;;;;;12.47;5.05;;;;;;;15.24;73.65;101494.48;1716166;83;25766;-63
2022/09/03 00:52:54;;;;;;;9.58;4.87;;;;;;;15.23;73.72;101498.20;1716224;83;26389;-64
2022/09/03 00:55:35;;;;;;;8.10;4.40;;;;;;;15.20;73.72;101500.35;1716091;83;25493;-63
2022/09/03 00:58:31;;;;;;;16.05;5.03;;;;;;;15.22;73.90;101497.84;1715574;83;26996;-63
2022/09/03 01:01:02;;;;;;;10.13;4.35;;;;;;;15.24;73.99;101501.27;1768361;81;25850;-63
2022/09/03 01:03:54;;;;;;;10.13;5.10;;;;;;;15.28;74.20;101499.97;1752975;80;25742;-63
2022/09/03 01:06:46;;;;;;;10.15;5.30;;;;;;;15.29;74.16;101505.72;1752875;81;26016;-63
2022/09/03 01:09:34;;;;;;;9.25;4.92;;;;;;;15.31;73.83;101510.50;1752505;80;25519;-63
2022/09/03 01:12:21;;;;;;;9.60;5.37;;;;;;;15.25;73.66;101507.52;1752435;80;27657;-62
2022/09/03 01:15:12;;;;;;;9.75;5.20;;;;;;;15.20;74.35;101506.61;1752825;80;25814;-63
2022/09/03 01:17:59;;;;;;;10.03;5.47;;;;;;;15.21;74.48;101508.33;1734283;80;25644;-63
2022/09/03 01:20:48;;;;;;;10.88;4.85;;;;;;;15.23;74.26;101507.69;1753103;80;25956;-63
2022/09/03 01:23:43;;;;;;;10.32;4.70;;;;;;;15.27;74.50;101510.46;1729651;81;25746;-63
2022/09/03 01:26:55;;;;;;;10.70;5.12;;;;;;;15.16;74.77;101511.48;1756242;81;27667;-63
2022/09/03 01:29:36;;;;;;;16.20;5.10;;;;;;;15.11;74.83;101508.37;1719390;83;25557;-64
2022/09/03 01:32:28;;;;;;;13.70;4.55;;;;;;;15.13;75.02;101506.38;1715294;83;25913;-63
2022/09/03 01:35:15;;;;;;;7.53;5.03;;;;;;;15.21;74.97;101506.97;1679586;84;25816;-63
2022/09/03 01:38:08;;;;;;;7.92;4.83;;;;;;;15.23;74.77;101503.61;1718111;83;25805;-63
2022/09/03 01:44:22;;;;;;;8.45;5.50;;;;;;;15.35;74.80;101496.14;1770759;80;25830;-63
2022/09/03 01:46:55;;;;;;;11.05;5.20;;;;;;;15.39;74.49;101500.76;1764434;81;25652;-63
2022/09/03 01:49:36;;;;;;;14.65;5.15;;;;;;;15.43;74.64;101499.47;1758350;81;25975;-64
2022/09/03 01:52:14;;;;;;;15.23;5.08;;;;;;;15.49;74.72;101502.44;1763688;80;25842;-63
2022/09/03 01:55:10;;;;;;;9.50;5.00;;;;;;;15.55;74.59;101502.83;1767540;81;28453;-63
2022/09/03 01:57:48;;;;;;;7.97;4.85;;;;;;;15.61;74.46;101499.50;1771175;80;26388;-63
2022/09/03 02:00:21;;;;;;;11.00;4.75;;;;;;;15.67;74.24;101499.40;1770897;81;25472;-63
2022/09/03 02:02:51;;;;;;;9.07;5.47;;;;;;;15.71;74.21;101498.94;1758861;81;26566;-63
2022/09/03 02:05:23;;;;;;;15.15;4.70;;;;;;;15.76;74.12;101490.34;1743775;81;25706;-63
2022/09/03 02:08:02;;;;;;;11.93;4.90;;;;;;;15.73;73.71;101502.88;1712600;83;27640;-64
2022/09/03 02:10:49;;;;;;;7.33;4.50;;;;;;;15.73;73.77;101489.32;1743731;82;25761;-63
2022/09/03 02:13:24;;;;;;;14.33;4.40;;;;;;;15.75;73.96;101499.00;1742808;82;25694;-64
2022/09/03 02:15:54;;;;;;;13.83;4.62;;;;;;;15.76;73.95;101497.13;1744001;81;25851;-64
2022/09/03 02:18:32;;;;;;;14.98;4.75;;;;;;;15.78;74.03;101495.96;1743890;82;25705;-63
2022/09/03 02:21:00;;;;;;;9.65;4.62;;;;;;;15.80;74.01;101491.77;1712934;83;26988;-63
2022/09/03 02:23:28;;;;;;;12.88;5.35;;;;;;;15.84;74.01;101481.48;1748142;80;25809;-63
2022/09/03 02:26:01;;;;;;;8.23;4.37;;;;;;;15.87;73.84;101489.33;1776285;80;25726;-64
2022/09/03 02:28:31;;;;;;;13.35;5.00;;;;;;;15.87;73.94;101488.81;1780355;80;25799;-64
2022/09/03 02:30:58;;;;;;;8.70;4.87;;;;;;;15.90;73.88;101484.94;1781701;80;25793;-64
2022/09/03 02:33:26;;;;;;;16.05;5.67;;;;;;;15.91;73.84;101492.91;1781439;80;27550;-63
2022/09/03 02:35:54;;;;;;;9.68;4.72;;;;;;;15.91;73.77;101488.84;1781327;80;25918;-64
2022/09/03 02:38:24;;;;;;;13.40;4.33;;;;;;;15.92;73.60;101492.42;1781463;80;25716;-64
2022/09/03 02:40:53;;;;;;;15.72;5.30;;;;;;;15.92;73.76;101500.56;1771033;80;26066;-63
2022/09/03 02:43:40;;;;;;;8.38;5.03;;;;;;;15.86;73.53;101499.31;1770947;81;25940;-64
2022/09/03 02:46:20;;;;;;;9.85;4.50;;;;;;;15.74;73.53;101494.58;1763414;80;28443;-63
2022/09/03 02:48:47;;;;;;;15.28;5.12;;;;;;;15.70;74.34;101492.33;1780909;80;25844;-63
2022/09/03 02:51:14;;;;;;;7.10;4.62;;;;;;;15.61;73.81;101494.95;1781700;80;25785;-63
2022/09/03 02:53:42;;;;;;;9.75;4.72;;;;;;;15.63;74.17;101492.94;1781463;80;25858;-63
2022/09/03 02:56:09;;;;;;;14.87;4.30;;;;;;;15.63;73.99;101492.94;1781842;80;25712;-64
2022/09/03 02:58:35;;;;;;;10.85;4.60;;;;;;;15.67;74.22;101493.98;1781745;80;28434;-63
2022/09/03 03:01:02;;;;;;;15.15;4.75;;;;;;;15.68;74.16;101488.42;1781577;80;25947;-63
2022/09/03 03:03:30;;;;;;;7.78;4.47;;;;;;;15.70;74.01;101497.75;1750960;80;25655;-63
2022/09/03 03:06:00;;;;;;;13.13;5.17;;;;;;;15.64;74.13;101490.55;1751750;81;25986;-63
2022/09/03 03:08:29;;;;;;;9.63;4.45;;;;;;;15.65;74.24;101492.27;1751905;81;25708;-63
2022/09/03 03:10:58;;;;;;;14.43;4.20;;;;;;;15.62;74.42;101488.52;1751623;81;27558;-63
2022/09/03 03:13:27;;;;;;;11.70;4.30;;;;;;;15.60;74.77;101481.03;1751657;81;25770;-63
2022/09/03 03:16:01;;;;;;;6.90;4.10;;;;;;;15.60;74.91;101492.36;1722466;81;25944;-63
2022/09/03 03:18:28;;;;;;;7.12;3.72;;;;;;;15.55;75.00;101480.65;1751066;81;25980;-63
2022/09/03 03:20:55;;;;;;;24.07;4.50;;;;;;;15.48;75.38;101479.03;1751662;81;26546;-63
2022/09/03 03:23:22;;;;;;;8.83;4.40;;;;;;;15.42;75.17;101480.97;1751937;81;28322;-64
2022/09/03 03:25:49;;;;;;;6.58;4.00;;;;;;;15.40;75.07;101476.23;1778952;80;25681;-63
2022/09/03 03:28:19;;;;;;;11.50;4.40;;;;;;;15.40;75.51;101476.71;1776422;80;25461;-64
2022/09/03 03:30:47;;;;;;;14.30;4.58;;;;;;;15.36;75.83;101476.16;1776297;80;25960;-63
2022/09/03 03:33:15;;;;;;;8.50;4.62;;;;;;;15.30;75.38;101476.26;1776407;80;26378;-63
2022/09/03 03:35:42;;;;;;;9.78;3.87;;;;;;;15.28;75.58;101468.80;1776604;80;27473;-63
2022/09/03 03:38:09;;;;;;;9.13;4.15;;;;;;;15.28;75.57;101463.38;1776263;80;25902;-63
2022/09/03 03:40:38;;;;;;;10.40;3.67;;;;;;;15.29;75.20;101475.91;1780084;80;25649;-63
2022/09/03 03:43:05;;;;;;;9.60;4.10;;;;;;;15.33;75.19;101475.09;1781816;80;26597;-63
2022/09/03 03:45:32;;;;;;;8.63;4.08;;;;;;;15.39;75.25;101488.55;1781478;80;25460;-63
2022/09/03 03:47:59;;;;;;;11.03;3.52;;;;;;;15.40;74.87;101487.56;1778353;80;27459;-63
2022/09/03 03:50:26;;;;;;;8.10;4.28;;;;;;;15.41;74.47;101499.62;1771089;81;25827;-64
2022/09/03 03:52:53;;;;;;;7.25;3.35;;;;;;;15.40;74.00;101490.27;1752107;81;26378;-62
2022/09/03 03:55:21;;;;;;;9.50;3.77;;;;;;;15.43;73.89;101492.69;1734266;82;25799;-63
2022/09/03 03:57:48;;;;;;;13.95;3.92;;;;;;;15.48;74.04;101487.17;1734342;82;25804;-63
2022/09/03 04:00:17;;;;;;;9.68;4.83;;;;;;;15.54;74.12;101496.56;1734132;82;27546;-63
2022/09/03 04:02:44;;;;;;;11.48;4.40;;;;;;;15.57;73.72;101488.10;1740082;81;25928;-63
2022/09/03 04:05:11;;;;;;;11.78;4.42;;;;;;;15.57;73.84;101495.40;1756933;81;25754;-63
2022/09/03 04:07:37;;;;;;;12.20;3.90;;;;;;;15.58;73.78;101502.53;1757022;81;25797;-63
2022/09/03 04:10:06;;;;;;;12.53;3.98;;;;;;;15.59;73.73;101496.95;1757219;81;25714;-63
2022/09/03 04:12:33;;;;;;;15.30;4.40;;;;;;;15.61;73.67;101499.50;1757121;81;26903;-64
2022/09/03 04:15:00;;;;;;;7.70;3.52;;;;;;;15.62;73.68;101507.50;1725491;83;26241;-64
2022/09/03 04:17:28;;;;;;;12.20;3.80;;;;;;;15.61;73.58;101507.15;1757077;81;25544;-63
2022/09/03 04:19:55;;;;;;;7.37;4.30;;;;;;;15.63;73.78;101505.14;1725626;83;25888;-64
2022/09/03 04:22:21;;;;;;;5.47;3.37;;;;;;;15.67;73.88;101493.98;1756945;81;25942;-62
2022/09/03 04:24:48;;;;;;;5.65;3.20;;;;;;;15.67;73.71;101493.98;1724445;83;27486;-63
2022/09/03 04:27:16;;;;;;;10.05;3.45;;;;;;;15.63;73.41;101491.59;1776621;80;25761;-62
2022/09/03 04:29:43;;;;;;;13.70;3.52;;;;;;;15.61;73.30;101491.36;1776530;80;25769;-62
2022/09/03 04:34:56;;;;;;;9.50;3.50;;;;;;;15.55;72.93;101486.07;1776914;80;25686;-63
2022/09/03 04:37:23;;;;;;;8.93;3.00;;;;;;;15.40;72.10;101488.91;1776521;80;28854;-62
2022/09/03 04:39:50;;;;;;;6.85;2.67;;;;;;;15.29;72.24;101494.87;1776530;80;25662;-62
2022/09/03 04:42:17;;;;;;;7.95;2.98;;;;;;;15.27;72.44;101511.81;1776509;80;25704;-62
2022/09/03 04:44:44;;;;;;;6.97;3.50;;;;;;;15.30;72.53;101522.34;1776617;80;25762;-63
2022/09/03 04:47:11;;;;;;;8.95;2.77;;;;;;;15.36;72.70;101524.13;1776517;79;25744;-63
2022/09/03 04:49:39;;;;;;;13.93;3.08;;;;;;;15.37;72.54;101528.03;1770027;79;27455;-63
2022/09/03 04:52:06;;;;;;;10.23;2.98;;;;;;;15.40;72.23;101528.22;1768771;81;25855;-62
2022/09/03 04:54:33;;;;;;;13.18;3.33;;;;;;;15.39;71.79;101536.88;1768910;81;25774;-64
2022/09/03 04:56:59;;;;;;;5.15;2.83;;;;;;;15.30;70.99;101534.54;1768923;81;26592;-64
2022/09/03 04:59:26;;;;;;;4.35;2.85;;;;;;;15.25;71.07;101526.50;1769013;80;25712;-63
2022/09/03 05:01:55;;;;;;;8.15;2.90;;;;;;;15.24;71.12;101532.95;1768816;81;27468;-63
2022/09/03 05:04:22;;;;;;;8.75;2.30;;;;;;;15.17;71.17;101531.33;1746874;81;25729;-63
2022/09/03 05:06:49;;;;;;;7.30;3.00;;;;;;;15.08;71.33;101538.98;1750578;81;25753;-63
2022/09/03 05:09:16;;;;;;;9.60;2.72;;;;;;;15.01;71.24;101530.58;1750509;82;27909;-62
2022/09/03 05:11:43;;;;;;;9.35;2.83;;;;;;;14.92;71.66;101518.78;1750390;81;25792;-63
2022/09/03 05:14:11;;;;;;;7.75;2.85;;;;;;;14.83;72.09;101515.59;1750609;82;27672;-63
2022/09/03 05:16:38;;;;;;;9.53;2.72;;;;;;;14.78;72.16;101517.39;1750253;82;25556;-63
2022/09/03 05:19:06;;;;;;;10.08;2.62;;;;;;;14.80;72.48;101517.23;1750423;82;25829;-63
2022/09/03 05:21:35;;;;;;;6.03;2.08;;;;;;;14.74;71.85;101517.31;1750348;81;25878;-63
2022/09/03 05:24:03;;;;;;;3.37;2.15;;;;;;;14.66;71.85;101519.38;1749895;82;25805;-63
2022/09/03 05:26:34;;;;;;;4.95;2.20;;;;;;;14.64;72.59;101529.48;1779478;80;27412;-63
2022/09/03 05:29:08;;;;;;;14.00;2.27;;;;;;;14.65;72.67;101535.75;1779146;80;25965;-63
2022/09/03 05:31:38;;;;;;;3.50;2.58;;;;;;;14.69;72.83;101530.45;1779290;80;25664;-63
2022/09/03 05:34:06;;;;;;;9.55;2.40;;;;;;;14.70;72.88;101537.06;1779280;80;25873;-63
2022/09/03 05:36:37;;;;;;;3.75;2.27;;;;;;;14.69;72.90;101530.45;1779464;80;25475;-63
2022/09/03 05:39:06;;;;;;;4.22;2.25;;;;;;;14.65;72.68;101523.08;1779081;80;27468;-63
2022/09/03 05:41:34;;;;;;;6.92;2.58;;;;;;;14.70;72.68;101528.09;1739446;82;25665;-63
2022/09/03 05:44:04;;;;;;;9.23;2.40;;;;;;;14.69;72.38;101516.39;1746706;82;25806;-63
2022/09/03 05:46:36;;;;;;;8.03;2.50;;;;;;;14.65;72.07;101520.85;1779390;80;25916;-64
2022/09/03 05:49:06;;;;;;;7.80;2.45;;;;;;;14.61;72.45;101520.29;1743679;82;25743;-64
2022/09/03 05:51:35;;;;;;;7.30;2.80;;;;;;;14.58;71.58;101527.34;1717308;83;27541;-63
2022/09/03 05:54:02;;;;;;;7.17;2.50;;;;;;;14.53;71.39;101529.13;1663737;83;25800;-63
2022/09/03 05:56:32;;;;;;;6.92;3.12;;;;;;;14.50;72.12;101533.49;1699656;84;25791;-64
2022/09/03 05:59:04;;;;;;;6.33;3.50;;;;;;;14.49;72.20;101528.20;1699588;84;25952;-64
2022/09/03 06:01:35;;;;;;;6.80;2.15;;;;;;;14.53;72.66;101534.53;1699323;84;25816;-63
2022/09/03 06:04:06;;;;;;;8.40;2.20;;;;;;;14.57;72.43;101543.22;1708140;83;27561;-64
2022/09/03 06:06:37;;;;;;;4.72;2.40;;;;;;;14.63;72.40;101549.92;1713242;83;25810;-63
2022/09/03 06:09:15;;;;;;;7.20;2.45;;;;;;;14.73;72.39;101555.37;1713251;83;25781;-63
2022/09/03 06:11:43;;;;;;;5.90;2.47;;;;;;;14.82;72.38;101549.09;1713212;83;26643;-64
2022/09/03 06:14:16;;;;;;;5.75;2.08;;;;;;;14.86;70.21;101545.95;1713389;82;25817;-63
2022/09/03 06:16:48;;;;;;;4.92;2.25;;;;;;;14.83;70.24;101550.30;1713237;83;27527;-63
2022/09/03 06:19:15;;;;;;;14.38;2.45;;;;;;;14.80;70.13;101548.37;1713352;82;25711;-63
2022/09/03 06:21:46;;;;;;;8.00;2.55;;;;;;;14.72;70.07;101543.67;1713250;83;25763;-63
2022/09/03 06:24:18;;;;;;;8.10;4.00;;;;;;;14.69;70.32;101543.47;1718509;83;26682;-63
2022/09/03 06:26:46;;;;;;;10.28;2.47;;;;;;;14.64;70.72;101541.67;1725398;83;25734;-62
2022/09/03 06:29:13;;;;;;;4.55;2.42;;;;;;;14.62;71.58;101540.95;1725421;83;27465;-63
2022/09/03 06:31:41;;;;;;;3.08;2.05;;;;;;;14.61;71.65;101537.05;1725244;83;25506;-63
2022/09/03 06:34:08;;;;;;;10.18;2.25;;;;;;;14.60;72.36;101548.87;1725361;83;25733;-62
2022/09/03 06:36:35;;;;;;;11.80;2.17;;;;;;;14.58;72.68;101549.52;1725297;83;26705;-62
2022/09/03 06:39:03;;;;;;;4.72;2.22;;;;;;;14.55;72.81;101547.44;1727646;82;25505;-63
2022/09/03 06:41:33;;;;;;;3.52;1.82;;;;;;;14.55;72.92;101542.54;1749019;81;28275;-63
2022/09/03 06:44:05;;;;;;;6.35;1.87;;;;;;;14.51;73.62;101552.80;1748927;82;25790;-62
2022/09/03 06:46:37;;;;;;;3.87;2.30;;;;;;;14.52;73.44;101555.00;1718217;82;25776;-63
2022/09/03 06:49:05;;;;;;;8.35;2.05;;;;;;;14.52;73.61;101553.13;1761864;80;25934;-63
2022/09/03 06:51:32;;;;;;;3.83;2.35;;;;;;;14.51;73.72;101562.28;1784230;80;25452;-64
2022/09/03 06:54:04;;;;;;;5.70;2.62;;;;;;;14.50;73.37;101566.45;1784454;80;27449;-63
2022/09/03 06:56:33;;;;;;;6.53;2.77;;;;;;;14.48;73.16;101562.55;1784216;80;25947;-63
2022/09/03 06:59:08;;;;;;;4.97;1.95;;;;;;;14.46;73.47;101566.41;1784313;80;25876;-63
2022/09/03 07:01:39;;;;;;;4.37;1.98;;;;;;;14.46;73.96;101567.25;1783678;80;25835;-64
2022/09/03 07:04:07;;;;;;;7.03;2.33;;;;;;;14.46;74.20;101566.41;1762789;80;25797;-63
2022/09/03 07:06:38;;;;;;;5.90;2.12;;;;;;;14.46;74.11;101577.23;1757909;81;27505;-64
2022/09/03 07:09:08;;;;;;;4.83;2.25;;;;;;;14.47;74.41;101581.14;1726192;83;25742;-63
2022/09/03 07:11:38;;;;;;;5.33;2.50;;;;;;;14.49;74.16;101581.86;1757943;80;25745;-63
2022/09/03 07:14:05;;;;;;;10.08;3.02;;;;;;;14.53;73.84;101586.48;1757945;81;25781;-63
2022/09/03 07:16:35;;;;;;;6.22;4.12;;;;;;;14.54;73.90;101600.39;1757948;81;25882;-63
2022/09/03 07:19:04;;;;;;;8.98;2.90;;;;;;;14.58;74.58;101596.89;1757703;81;27093;-63
2022/09/03 07:21:35;;;;;;;7.53;2.90;;;;;;;14.61;74.06;101604.75;1757905;81;25745;-64
2022/09/03 07:24:04;;;;;;;10.90;3.35;;;;;;;14.63;74.48;101606.78;1767199;80;25856;-64
2022/09/03 07:26:36;;;;;;;7.53;2.83;;;;;;;14.65;74.73;101604.31;1784373;80;25802;-64
2022/09/03 07:29:06;;;;;;;15.48;3.30;;;;;;;14.67;74.38;101602.33;1784342;80;25984;-64
2022/09/03 07:31:38;;;;;;;13.95;3.00;;;;;;;14.67;74.64;101610.97;1784480;80;27467;-64
2022/09/03 07:34:27;;;;;;;12.53;2.85;;;;;;;14.67;75.13;101615.03;1784430;80;25748;-64
2022/09/03 07:36:55;;;;;;;15.78;3.35;;;;;;;14.63;75.33;101604.95;1766227;81;25492;-63
2022/09/03 07:39:21;;;;;;;8.00;2.42;;;;;;;14.63;75.82;101608.14;1765977;80;26847;-63
2022/09/03 07:41:49;;;;;;;5.83;2.22;;;;;;;14.64;75.73;101609.37;1765976;81;26227;-64
2022/09/03 07:44:19;;;;;;;31.00;12.70;;;;;;;14.71;76.12;101612.38;1765570;81;27573;-63
2022/09/03 07:46:48;;;;;;;6.58;3.17;;;;;;;14.75;76.28;101614.33;1765552;81;25853;-64
2022/09/03 07:49:16;;;;;;;10.68;3.42;;;;;;;14.74;75.81;101616.67;1765669;81;25780;-63
2022/09/03 07:51:45;;;;;;;7.67;2.77;;;;;;;14.71;76.13;101613.25;1765635;81;26449;-63
2022/09/03 07:54:12;;;;;;;6.37;2.72;;;;;;;14.75;76.22;101614.33;1765746;81;25752;-63
2022/09/03 07:56:40;;;;;;;8.55;3.00;;;;;;;14.83;76.27;101615.30;1765690;81;27483;-64
2022/09/03 07:59:08;;;;;;;5.12;2.77;;;;;;;14.91;76.25;101617.31;1765438;81;25504;-63
2022/09/03 08:01:36;;;;;;;12.47;2.95;;;;;;;14.99;76.29;101610.66;1765652;81;25797;-63
2022/09/03 08:04:05;;;;;;;8.38;2.33;;;;;;;15.10;76.15;101616.93;1766039;81;25754;-63
2022/09/03 08:06:33;;;;;;;5.20;2.77;;;;;;;15.13;75.62;101620.68;1765989;81;25726;-65
2022/09/03 08:09:05;;;;;;;4.08;2.00;;;;;;;15.07;76.21;101619.41;1761817;81;28504;-64
2022/09/03 08:11:36;;;;;;;4.72;2.05;;;;;;;15.05;76.29;101622.78;1765907;81;25844;-64
2022/09/03 08:14:07;;;;;;;4.83;2.50;;;;;;;14.98;76.22;101621.14;1751561;81;25845;-64
2022/09/03 08:16:41;;;;;;;8.10;2.52;;;;;;;15.00;76.75;101623.22;1753152;81;26707;-64
2022/09/03 08:19:08;;;;;;;;;;;;;;;15.08;76.65;101627.89;1776215;80;25627;-64
2022/09/03 08:21:35;;;;;;;5.65;2.33;;;;;;;15.11;76.54;101623.55;1765835;80;27705;-64
2022/09/03 08:24:02;;;;;;;52.65;34.73;;;;;;;15.13;76.16;101624.75;1757529;80;25802;-63
2022/09/03 08:26:39;;;;;;;13.72;4.20;;;;;;;15.22;76.54;101621.67;1754032;81;25824;-63
2022/09/03 08:29:06;;;;;;;6.55;2.50;;;;;;;15.22;75.39;101624.39;1756960;81;26588;-64
2022/09/03 08:31:35;;;;;;;4.47;2.10;;;;;;;15.22;75.51;101629.30;1754420;81;25443;-63
2022/09/03 08:34:06;;;;;;;7.28;2.60;;;;;;;15.26;75.50;101636.14;1754460;79;27308;-64
2022/09/03 08:36:37;;;;;;;31.30;19.30;;;;;;;15.33;75.41;101632.33;1744903;81;26522;-64
2022/09/03 08:39:09;;;;;;;23.92;14.10;;;;;;;15.42;75.40;101631.45;1743894;81;25842;-64
2022/09/03 08:41:54;;;;;;;8.10;2.83;;;;;;;15.52;75.25;101634.63;1760727;81;25830;-63
2022/09/03 08:44:48;;;;;;;8.05;4.12;;;;;;;15.60;75.01;101634.27;1760619;80;25782;-63
2022/09/03 08:47:24;;;;;;;6.37;2.65;;;;;;;15.62;74.69;101634.10;1760042;81;27480;-63
2022/09/03 08:50:12;;;;;;;5.37;2.12;;;;;;;15.70;74.52;101638.80;1760795;81;26196;-63
2022/09/03 08:52:51;;;;;;;11.65;2.20;;;;;;;15.72;74.37;101638.16;1755305;81;25787;-64
2022/09/03 08:55:43;;;;;;;8.80;1.92;;;;;;;15.75;74.08;101629.70;1748841;81;26173;-63
2022/09/03 08:58:22;;;;;;;3.87;2.20;;;;;;;15.74;74.16;101636.13;1707285;83;25745;-64
2022/09/03 09:01:10;;;;;;;6.03;2.40;;;;;;;15.71;73.93;101639.99;1685522;84;27729;-63
2022/09/03 09:03:55;;;;;;;6.25;2.40;;;;;;;15.63;73.98;101638.53;1712455;83;25519;-64
2022/09/03 09:06:37;;;;;;;6.47;2.12;;;;;;;15.67;74.02;101632.30;1716097;83;25757;-64
2022/09/03 09:09:22;;;;;;;5.60;2.27;;;;;;;15.77;74.16;101639.42;1731065;82;26583;-64
2022/09/03 09:12:14;;;;;;;6.33;2.52;;;;;;;15.77;73.24;101633.13;1742442;82;26376;-65
2022/09/03 09:15:13;;;;;;;4.08;2.40;;;;;;;15.75;73.85;101630.56;1740204;82;27865;-64
2022/09/03 09:18:34;;;;;;;5.50;2.30;;;;;;;15.80;74.10;101631.48;1741569;82;25786;-64
2022/09/03 09:21:17;;;;;;;4.58;2.45;;;;;;;15.80;73.33;101626.05;1738430;82;25750;-65
2022/09/03 09:23:49;;;;;;;4.95;2.58;;;;;;;15.78;73.52;101628.05;1712170;82;25854;-63
2022/09/03 09:26:20;;;;;;;6.05;2.15;;;;;;;15.77;73.59;101622.27;1742260;82;25771;-64
2022/09/03 09:28:59;;;;;;;7.30;2.45;;;;;;;15.81;74.06;101620.47;1743569;81;27625;-64
2022/09/03 09:31:29;;;;;;;5.87;2.58;;;;;;;15.86;73.92;101632.77;1749225;81;25754;-64
2022/09/03 09:34:06;;;;;;;5.55;2.50;;;;;;;15.98;74.10;101627.48;1751390;81;25869;-63
2022/09/03 09:36:38;;;;;;;5.35;2.72;;;;;;;16.10;74.14;101621.34;1743496;82;26431;-64
2022/09/03 09:39:10;;;;;;;4.97;2.05;;;;;;;16.19;73.64;101613.64;1746046;80;25774;-63
2022/09/03 09:41:37;;;;;;;4.33;2.42;;;;;;;16.26;73.37;101612.05;1759703;80;28253;-64
2022/09/03 09:44:05;;;;;;;6.78;2.52;;;;;;;16.33;73.32;101606.83;1750308;81;25741;-64
2022/09/03 09:46:38;;;;;;;6.25;2.70;;;;;;;16.42;73.24;101618.65;1750594;82;25775;-63
2022/09/03 09:49:41;;;;;;;4.28;2.40;;;;;;;16.50;72.97;101618.73;1748367;81;25889;-64
2022/09/03 09:52:12;;;;;;;5.30;2.50;;;;;;;16.45;71.78;101616.13;1742750;82;32360;-64
2022/09/03 09:54:42;;;;;;;11.33;2.37;;;;;;;16.43;72.12;101616.28;1751787;80;28265;-64
2022/09/03 09:57:22;;;;;;;5.08;2.20;;;;;;;16.45;72.19;101616.13;1736096;82;25800;-65
2022/09/03 10:00:11;;;;;;;7.20;2.90;;;;;;;16.43;71.67;101612.21;1742823;81;25811;-63
2022/09/03 10:02:53;;;;;;;6.12;2.35;;;;;;;16.33;70.87;101606.83;1743635;81;25813;-64
2022/09/03 10:05:25;;;;;;;3.55;2.25;;;;;;;16.25;71.18;101608.98;1744654;81;25873;-62
2022/09/03 10:08:03;;;;;;;9.23;2.95;;;;;;;16.16;71.35;101607.66;1748439;81;27491;-63
2022/09/03 10:10:40;;;;;;;6.22;2.55;;;;;;;16.20;71.62;101613.16;1744274;81;26638;-63
2022/09/03 10:13:17;;;;;;;6.30;2.35;;;;;;;16.26;71.72;101600.31;1743827;82;26486;-63
2022/09/03 10:15:53;;;;;;;3.12;2.50;;;;;;;16.16;71.38;101599.03;1743359;81;26169;-63
2022/09/03 10:18:46;;;;;;;7.62;2.80;;;;;;;15.99;70.59;101599.34;1743792;81;25520;-63
2022/09/03 10:21:21;;;;;;;6.62;2.92;;;;;;;15.84;70.63;101609.84;1748528;80;28411;-62
2022/09/03 10:24:27;;;;;;;3.72;2.40;;;;;;;15.82;71.71;101606.41;1742742;80;25751;-62
2022/09/03 10:26:55;;;;;;;3.12;2.33;;;;;;;15.88;72.08;101603.13;1741417;82;25845;-63
2022/09/03 10:29:28;;;;;;;4.67;2.40;;;;;;;15.99;72.10;101598.50;1741790;81;25992;-63
2022/09/03 10:32:11;;;;;;;10.45;2.92;;;;;;;16.11;72.11;101605.41;1741840;82;26116;-63
2022/09/03 10:35:01;;;;;;;6.22;2.80;;;;;;;16.25;72.24;101596.77;1741853;79;27560;-64
2022/09/03 10:37:52;;;;;;;9.20;2.40;;;;;;;16.42;72.30;101605.07;1741690;81;25779;-63
2022/09/03 10:40:46;;;;;;;5.83;2.67;;;;;;;16.51;71.58;101612.30;1742888;81;25739;-63
2022/09/03 10:43:44;;;;;;;7.22;2.65;;;;;;;16.63;71.61;101621.05;1743657;81;26326;-63
2022/09/03 10:46:17;;;;;;;3.92;2.80;;;;;;;16.81;71.92;101618.31;1743954;82;25975;-63
2022/09/03 10:49:15;;;;;;;10.03;2.87;;;;;;;17.03;71.78;101613.44;1743930;82;27633;-62
2022/09/03 10:51:46;;;;;;;3.80;2.25;;;;;;;17.26;71.66;101608.34;1743702;82;25320;-63
2022/09/03 10:54:18;;;;;;;9.98;3.17;;;;;;;17.56;70.87;101600.70;1743027;82;25826;-63
2022/09/03 10:57:10;;;;;;;11.57;2.92;;;;;;;17.81;70.69;101600.28;1744078;82;26169;-63
2022/09/03 10:59:53;;;;;;;5.28;2.85;;;;;;;18.03;70.22;101603.47;1743882;82;25809;-64
2022/09/03 11:02:36;;;;;;;9.38;2.85;;;;;;;18.23;69.93;101603.19;1745856;82;28347;-64
2022/09/03 11:05:37;;;;;;;8.00;2.72;;;;;;;18.35;69.30;101604.56;1749286;81;25759;-63
2022/09/03 11:08:15;;;;;;;6.33;2.25;;;;;;;18.42;67.83;101604.75;1746900;81;25853;-64
2022/09/03 11:10:51;;;;;;;3.50;2.17;;;;;;;18.40;67.91;101602.20;1749114;81;25835;-64
2022/09/03 11:13:34;;;;;;;6.58;2.70;;;;;;;18.35;67.01;101604.56;1739085;81;25768;-65
2022/09/03 11:16:10;;;;;;;5.45;2.47;;;;;;;18.25;65.35;101601.12;1753188;81;27490;-64
2022/09/03 11:18:51;;;;;;;8.88;2.70;;;;;;;18.11;65.15;101597.17;1749590;80;25808;-64
2022/09/03 11:21:23;;;;;;;3.87;2.60;;;;;;;18.03;65.95;101593.08;1751852;80;25821;-64
2022/09/03 11:24:08;;;;;;;7.40;2.50;;;;;;;18.05;65.47;101593.77;1750024;81;25922;-64
2022/09/03 11:26:36;;;;;;;6.58;2.35;;;;;;;18.06;65.53;101592.26;1737455;81;25793;-65
2022/09/03 11:29:24;;;;;;;4.53;2.10;;;;;;;18.07;65.12;101593.09;1751359;81;27478;-64
2022/09/03 11:32:01;;;;;;;7.20;2.52;;;;;;;17.95;63.57;101596.09;1749163;81;25709;-64
2022/09/03 11:34:33;;;;;;;4.33;2.37;;;;;;;17.93;65.01;101589.11;1743216;81;25682;-64
2022/09/03 11:37:17;;;;;;;3.98;2.00;;;;;;;18.01;64.28;101592.41;1741001;81;25829;-65
2022/09/03 11:39:57;;;;;;;4.92;2.30;;;;;;;17.96;64.15;101599.19;1760036;80;25769;-63
2022/09/03 11:42:32;;;;;;;4.78;2.58;;;;;;;18.05;64.82;101596.48;1776454;80;27497;-64
2022/09/03 11:45:21;;;;;;;4.55;2.30;;;;;;;18.13;64.43;101598.74;1776466;79;25996;-63
2022/09/03 11:47:50;;;;;;;6.10;2.30;;;;;;;18.22;64.58;101602.84;1776745;79;25687;-63
2022/09/03 11:50:25;;;;;;;5.53;2.58;;;;;;;18.27;62.90;101592.29;1776432;80;25978;-63
2022/09/03 11:53:12;;;;;;;7.67;2.05;;;;;;;18.26;63.53;101591.95;1776790;80;25716;-63
2022/09/03 11:56:02;;;;;;;5.22;2.40;;;;;;;18.35;63.78;101590.10;1774374;79;27567;-62
2022/09/03 11:58:33;;;;;;;8.18;2.95;;;;;;;18.39;63.84;101596.91;1774812;80;26035;-64
2022/09/03 12:01:05;;;;;;;5.03;2.80;;;;;;;18.42;63.73;101596.05;1776141;79;25760;-63
2022/09/03 12:03:43;;;;;;;3.80;2.40;;;;;;;18.46;63.18;101595.23;1763042;80;26234;-63
2022/09/03 12:06:39;;;;;;;6.28;2.22;;;;;;;18.49;62.83;101583.14;1752478;81;25753;-63